Time;durP1;ratioP1;P1;durP2;ratioP2;P2;SDS_P1;SDS_P2;PMS_P1;PMS_P2;Temp;Humidity;BMP_temperature;BMP_pressure;BME280_temperature;BME280_humidity;BME280_pressure;Samples;Min_cycle;Max_cycle;Signal;HPM_P1;HPM_P2
2022/10/09 00:00:34;;;;;;;15.90;6.47;;;;;;;;;;5090255;28;20115;-57
2022/10/09 00:03:00;;;;;;;9.40;5.28;;;;;;;;;;5091528;28;20024;-57
2022/10/09 00:05:25;;;;;;;13.25;4.97;;;;;;;;;;5096438;28;20486;-56
2022/10/09 00:07:52;;;;;;;15.20;5.20;;;;;;;;;;5086746;28;20054;-56
2022/10/09 00:10:17;;;;;;;11.60;5.57;;;;;;;;;;5096296;28;20031;-55
2022/10/09 00:12:43;;;;;;;11.55;5.28;;;;;;;;;;5095976;28;20024;-56
2022/10/09 00:15:09;;;;;;;8.93;5.10;;;;;;;;;;5091335;28;20020;-57
2022/10/09 00:17:34;;;;;;;13.25;6.00;;;;;;;;;;5087405;28;20024;-55
2022/10/09 00:19:59;;;;;;;12.75;5.10;;;;;;;;;;5089496;28;20020;-56
2022/10/09 00:22:24;;;;;;;12.10;6.18;;;;;;;;;;5100006;28;20098;-54
2022/10/09 00:24:50;;;;;;;10.00;5.90;;;;;;;;;;5089519;28;20043;-55
2022/10/09 00:27:15;;;;;;;10.50;5.22;;;;;;;;;;5085469;28;20043;-56
2022/10/09 00:29:40;;;;;;;11.95;5.45;;;;;;;;;;5088169;28;20031;-56
2022/10/09 00:32:05;;;;;;;12.00;5.50;;;;;;;;;;5098337;28;20032;-55
2022/10/09 00:34:31;;;;;;;11.32;5.30;;;;;;;;;;5087622;28;20024;-55
2022/10/09 00:36:56;;;;;;;9.95;5.88;;;;;;;;;;5090888;28;20031;-56
2022/10/09 00:39:21;;;;;;;13.27;6.25;;;;;;;;;;5089226;28;20092;-56
2022/10/09 00:41:46;;;;;;;12.80;7.05;;;;;;;;;;5092022;28;20154;-55
2022/10/09 00:44:31;;;;;;;10.88;5.82;;;;;;;;;;5090310;28;20409;-56
2022/10/09 00:46:56;;;;;;;8.85;5.90;;;;;;;;;;5087193;28;20020;-56
2022/10/09 00:49:31;;;;;;;11.68;5.70;;;;;;;;;;5089094;28;20488;-55
2022/10/09 00:51:57;;;;;;;14.05;5.90;;;;;;;;;;5089105;28;20024;-56
2022/10/09 00:54:23;;;;;;;8.93;6.00;;;;;;;;;;5089574;28;20062;-56
2022/10/09 00:56:48;;;;;;;8.98;6.47;;;;;;;;;;5090534;28;20032;-56
2022/10/09 00:59:13;;;;;;;13.10;5.70;;;;;;;;;;5091755;28;20077;-55
2022/10/09 01:01:39;;;;;;;10.02;5.70;;;;;;;;;;5086102;28;20107;-56
2022/10/09 01:04:04;;;;;;;9.88;6.07;;;;;;;;;;5088771;28;20131;-56
2022/10/09 01:06:50;;;;;;;11.38;6.70;;;;;;;;;;5092708;28;20423;-56
2022/10/09 01:09:17;;;;;;;11.95;6.18;;;;;;;;;;5081152;28;20039;-56
2022/10/09 01:11:42;;;;;;;9.27;6.70;;;;;;;;;;5088465;28;20463;-56
2022/10/09 01:14:29;;;;;;;15.05;6.18;;;;;;;;;;5087993;28;20408;-55
2022/10/09 01:16:58;;;;;;;12.93;6.88;;;;;;;;;;5082041;28;20492;-56
2022/10/09 01:19:52;;;;;;;13.13;6.40;;;;;;;;;;5086821;28;20039;-56
2022/10/09 01:22:20;;;;;;;10.48;5.80;;;;;;;;;;5050029;28;20033;-55
2022/10/09 01:25:12;;;;;;;15.70;5.93;;;;;;;;;;5091762;28;20047;-55
2022/10/09 01:27:37;;;;;;;10.43;6.13;;;;;;;;;;5088491;28;20096;-56
2022/10/09 01:30:04;;;;;;;11.35;6.10;;;;;;;;;;5088100;28;20682;-56
2022/10/09 01:32:30;;;;;;;11.00;6.03;;;;;;;;;;5087989;28;20720;-55
2022/10/09 01:34:55;;;;;;;14.68;6.10;;;;;;;;;;5085602;28;20147;-55
2022/10/09 01:37:21;;;;;;;11.57;6.28;;;;;;;;;;5087602;28;20020;-55
2022/10/09 01:39:46;;;;;;;10.60;5.90;;;;;;;;;;5086082;28;20024;-55
2022/10/09 01:42:11;;;;;;;9.73;5.20;;;;;;;;;;5090666;28;20027;-55
2022/10/09 01:44:37;;;;;;;15.63;7.85;;;;;;;;;;5088340;28;20028;-55
2022/10/09 01:47:03;;;;;;;11.20;6.38;;;;;;;;;;5090403;28;20086;-55
2022/10/09 01:49:36;;;;;;;11.77;7.13;;;;;;;;;;5078934;28;20033;-55
2022/10/09 01:52:04;;;;;;;9.48;6.45;;;;;;;;;;5087024;28;20024;-56
2022/10/09 01:54:48;;;;;;;8.98;6.53;;;;;;;;;;5093812;28;20024;-56
2022/10/09 01:57:13;;;;;;;14.02;7.28;;;;;;;;;;5092189;28;20027;-56
2022/10/09 01:59:39;;;;;;;14.05;7.68;;;;;;;;;;5093702;28;20020;-55
2022/10/09 02:02:05;;;;;;;10.52;6.55;;;;;;;;;;5096038;28;20109;-54
2022/10/09 02:04:30;;;;;;;8.32;6.03;;;;;;;;;;5090023;28;20044;-56
2022/10/09 02:06:55;;;;;;;10.88;6.72;;;;;;;;;;5091491;28;20109;-56
2022/10/09 02:09:20;;;;;;;14.10;6.95;;;;;;;;;;5095167;28;20107;-56
2022/10/09 02:11:48;;;;;;;17.15;7.68;;;;;;;;;;5096229;28;20409;-56
2022/10/09 02:14:13;;;;;;;15.00;7.57;;;;;;;;;;5092424;28;20040;-56
2022/10/09 02:16:38;;;;;;;12.10;6.93;;;;;;;;;;5092195;28;20099;-56
2022/10/09 02:19:03;;;;;;;12.32;6.22;;;;;;;;;;5098004;28;20089;-55
2022/10/09 02:21:31;;;;;;;12.43;6.22;;;;;;;;;;5090798;28;20486;-56
2022/10/09 02:23:57;;;;;;;12.57;6.00;;;;;;;;;;5087688;28;20043;-54
2022/10/09 02:26:22;;;;;;;11.27;5.65;;;;;;;;;;5096715;28;20024;-57
2022/10/09 02:28:47;;;;;;;11.45;6.25;;;;;;;;;;5092341;28;20074;-56
2022/10/09 02:31:12;;;;;;;11.88;5.60;;;;;;;;;;5093101;28;20392;-56
2022/10/09 02:33:38;;;;;;;11.50;5.90;;;;;;;;;;5090473;28;20123;-55
2022/10/09 02:36:03;;;;;;;10.90;6.20;;;;;;;;;;5094280;28;20036;-55
2022/10/09 02:38:28;;;;;;;16.15;7.53;;;;;;;;;;5093800;28;20053;-56
2022/10/09 02:40:57;;;;;;;13.88;7.50;;;;;;;;;;5092393;28;20374;-55
2022/10/09 02:43:23;;;;;;;12.10;7.00;;;;;;;;;;5092197;28;20036;-55
2022/10/09 02:45:48;;;;;;;12.82;7.25;;;;;;;;;;5091870;28;20119;-54
2022/10/09 02:48:13;;;;;;;14.35;6.60;;;;;;;;;;5090437;28;20054;-56
2022/10/09 02:50:38;;;;;;;12.35;6.47;;;;;;;;;;5092965;28;20024;-57
2022/10/09 02:53:04;;;;;;;11.95;6.97;;;;;;;;;;5085969;28;20032;-55
2022/10/09 02:55:29;;;;;;;11.27;6.22;;;;;;;;;;5090523;28;20571;-55
2022/10/09 02:57:54;;;;;;;14.68;7.10;;;;;;;;;;5098485;28;20012;-55
2022/10/09 03:00:19;;;;;;;21.05;10.23;;;;;;;;;;5090944;28;20032;-56
2022/10/09 03:02:44;;;;;;;17.23;9.70;;;;;;;;;;5090657;28;20053;-56
2022/10/09 03:05:10;;;;;;;9.95;7.45;;;;;;;;;;5090629;28;20201;-56
2022/10/09 03:07:35;;;;;;;17.40;7.50;;;;;;;;;;5091626;28;20076;-55
2022/10/09 03:10:00;;;;;;;14.52;7.18;;;;;;;;;;5095109;28;20039;-54
2022/10/09 03:12:25;;;;;;;11.35;6.97;;;;;;;;;;5094543;28;20024;-55
2022/10/09 03:14:51;;;;;;;12.10;7.63;;;;;;;;;;5089411;28;20028;-55
2022/10/09 03:17:16;;;;;;;14.70;7.40;;;;;;;;;;5092876;28;20502;-54
2022/10/09 03:19:41;;;;;;;12.38;6.78;;;;;;;;;;5093395;28;20391;-55
2022/10/09 03:22:06;;;;;;;12.27;6.78;;;;;;;;;;5091585;28;20047;-56
2022/10/09 03:24:32;;;;;;;17.58;7.18;;;;;;;;;;5098175;28;20032;-55
2022/10/09 03:26:57;;;;;;;12.38;6.88;;;;;;;;;;5095078;28;20015;-55
2022/10/09 03:29:22;;;;;;;12.80;8.10;;;;;;;;;;5096331;28;20418;-56
2022/10/09 03:31:47;;;;;;;10.52;7.47;;;;;;;;;;5091200;28;20093;-56
2022/10/09 03:34:13;;;;;;;18.40;8.45;;;;;;;;;;5087360;28;20325;-55
2022/10/09 03:36:38;;;;;;;22.50;8.80;;;;;;;;;;5092756;28;20024;-56
2022/10/09 03:39:03;;;;;;;15.02;8.93;;;;;;;;;;5089826;28;20028;-55
2022/10/09 03:41:28;;;;;;;16.45;8.60;;;;;;;;;;5085291;28;20036;-56
2022/10/09 03:43:54;;;;;;;20.95;8.38;;;;;;;;;;5098236;28;20020;-55
2022/10/09 03:46:19;;;;;;;14.88;8.43;;;;;;;;;;5091367;28;20025;-55
2022/10/09 03:48:44;;;;;;;14.10;9.25;;;;;;;;;;5093695;28;20119;-56
2022/10/09 03:51:09;;;;;;;14.90;9.43;;;;;;;;;;5098482;28;20241;-55
2022/10/09 03:53:35;;;;;;;14.63;9.95;;;;;;;;;;5093723;28;20020;-55
2022/10/09 03:56:00;;;;;;;25.95;12.02;;;;;;;;;;5089665;28;20028;-55
2022/10/09 03:58:25;;;;;;;19.85;12.10;;;;;;;;;;5095744;28;20036;-55
2022/10/09 04:00:51;;;;;;;20.88;12.45;;;;;;;;;;5088800;28;20020;-56
2022/10/09 04:03:16;;;;;;;25.05;11.57;;;;;;;;;;5103001;27;20085;-55
2022/10/09 04:05:41;;;;;;;15.70;9.80;;;;;;;;;;5094443;28;20059;-55
2022/10/09 04:08:06;;;;;;;17.38;10.20;;;;;;;;;;5093961;28;20114;-56
2022/10/09 04:10:32;;;;;;;17.23;9.32;;;;;;;;;;5093405;28;20415;-55
2022/10/09 04:12:57;;;;;;;13.55;8.35;;;;;;;;;;5096787;28;20480;-56
2022/10/09 04:15:22;;;;;;;14.90;8.50;;;;;;;;;;5091298;28;20458;-55
2022/10/09 04:17:47;;;;;;;12.43;8.45;;;;;;;;;;5088688;28;20030;-55
2022/10/09 04:20:13;;;;;;;17.05;9.07;;;;;;;;;;5092652;28;20016;-56
2022/10/09 04:22:38;;;;;;;18.30;10.15;;;;;;;;;;5089675;28;20040;-55
2022/10/09 04:25:03;;;;;;;25.42;10.55;;;;;;;;;;5088960;28;20040;-57
2022/10/09 04:27:29;;;;;;;10.57;7.45;;;;;;;;;;5095406;28;20036;-56
2022/10/09 04:29:54;;;;;;;14.15;8.55;;;;;;;;;;5095366;28;20032;-55
2022/10/09 04:32:20;;;;;;;16.42;10.38;;;;;;;;;;5078791;28;20446;-55
2022/10/09 04:34:45;;;;;;;20.83;12.85;;;;;;;;;;5085111;28;20036;-56
2022/10/09 04:37:10;;;;;;;26.75;12.68;;;;;;;;;;5088692;28;20027;-55
2022/10/09 04:39:35;;;;;;;22.83;12.85;;;;;;;;;;5091025;28;20363;-55
2022/10/09 04:42:01;;;;;;;16.55;10.93;;;;;;;;;;5087078;28;20614;-54
2022/10/09 04:44:26;;;;;;;18.77;12.18;;;;;;;;;;5086300;28;20595;-55
2022/10/09 04:46:51;;;;;;;19.17;12.32;;;;;;;;;;5081193;28;20326;-56
2022/10/09 04:49:16;;;;;;;17.95;10.95;;;;;;;;;;5090218;28;20417;-55
2022/10/09 04:51:42;;;;;;;17.75;11.05;;;;;;;;;;5090504;28;20071;-54
2022/10/09 04:54:07;;;;;;;22.15;11.25;;;;;;;;;;5098950;28;20032;-53
2022/10/09 04:56:33;;;;;;;18.83;9.75;;;;;;;;;;5087229;28;20020;-55
2022/10/09 04:58:58;;;;;;;14.07;10.10;;;;;;;;;;5094968;28;20024;-55
2022/10/09 05:01:24;;;;;;;17.98;10.35;;;;;;;;;;5087425;28;20457;-56
2022/10/09 05:03:49;;;;;;;21.90;10.48;;;;;;;;;;5086778;28;20363;-55
2022/10/09 05:06:14;;;;;;;20.42;9.90;;;;;;;;;;5092053;28;20097;-55
2022/10/09 05:08:41;;;;;;;24.58;10.82;;;;;;;;;;5085692;28;20024;-55
2022/10/09 05:11:07;;;;;;;22.63;11.73;;;;;;;;;;5094169;28;20039;-56
2022/10/09 05:13:35;;;;;;;20.88;11.68;;;;;;;;;;5091288;28;20118;-55
2022/10/09 05:16:01;;;;;;;17.25;10.15;;;;;;;;;;5088244;28;20035;-54
2022/10/09 05:18:27;;;;;;;14.40;9.48;;;;;;;;;;5103852;28;20366;-56
2022/10/09 05:20:52;;;;;;;12.93;9.60;;;;;;;;;;5092850;28;20036;-54
2022/10/09 05:23:17;;;;;;;21.95;9.88;;;;;;;;;;5097557;28;20069;-55
2022/10/09 05:25:43;;;;;;;16.35;9.70;;;;;;;;;;5086669;28;20055;-56
2022/10/09 05:28:08;;;;;;;17.00;9.55;;;;;;;;;;5086403;28;20032;-56
2022/10/09 05:30:33;;;;;;;16.55;10.95;;;;;;;;;;5087163;28;20012;-56
2022/10/09 05:32:58;;;;;;;15.32;9.63;;;;;;;;;;5100720;28;20518;-55
2022/10/09 05:35:24;;;;;;;14.73;9.85;;;;;;;;;;5096416;28;20019;-56
2022/10/09 05:37:49;;;;;;;20.92;9.70;;;;;;;;;;5084096;28;20054;-55
2022/10/09 05:40:14;;;;;;;16.25;9.63;;;;;;;;;;5098092;28;20051;-55
2022/10/09 05:42:39;;;;;;;18.10;9.00;;;;;;;;;;5092386;28;20108;-56
2022/10/09 05:45:05;;;;;;;16.65;9.40;;;;;;;;;;5094889;28;20140;-56
2022/10/09 05:47:30;;;;;;;15.75;10.50;;;;;;;;;;5092978;28;20031;-56
2022/10/09 05:49:55;;;;;;;17.38;9.75;;;;;;;;;;5086224;28;20561;-55
2022/10/09 05:52:21;;;;;;;16.55;10.50;;;;;;;;;;5097110;28;20024;-55
2022/10/09 05:54:46;;;;;;;41.33;22.70;;;;;;;;;;5089271;28;20020;-56
2022/10/09 05:57:11;;;;;;;31.98;17.05;;;;;;;;;;5088885;28;20015;-55
2022/10/09 05:59:36;;;;;;;21.40;13.07;;;;;;;;;;5095966;28;20610;-56
2022/10/09 06:02:02;;;;;;;27.25;15.93;;;;;;;;;;5093794;28;20081;-52
2022/10/09 06:04:27;;;;;;;28.67;16.20;;;;;;;;;;5091315;28;20083;-56
2022/10/09 06:06:52;;;;;;;18.52;11.90;;;;;;;;;;5093597;28;20115;-55
2022/10/09 06:09:18;;;;;;;25.80;11.82;;;;;;;;;;5086958;28;20096;-55
2022/10/09 06:11:44;;;;;;;19.30;9.82;;;;;;;;;;5092007;28;20023;-55
2022/10/09 06:14:09;;;;;;;12.93;8.65;;;;;;;;;;5086797;28;20032;-55
2022/10/09 06:16:36;;;;;;;14.60;8.40;;;;;;;;;;5088146;28;20023;-55
2022/10/09 06:19:02;;;;;;;13.13;7.63;;;;;;;;;;5091208;28;20497;-55
2022/10/09 06:21:27;;;;;;;15.80;7.55;;;;;;;;;;5085674;28;20024;-56
2022/10/09 06:23:53;;;;;;;13.02;7.68;;;;;;;;;;5094525;28;20058;-55
2022/10/09 06:26:18;;;;;;;19.27;8.00;;;;;;;;;;5095695;28;20112;-54
2022/10/09 06:28:47;;;;;;;16.52;7.22;;;;;;;;;;5094840;28;20071;-52
2022/10/09 06:31:13;;;;;;;10.10;7.47;;;;;;;;;;5090546;28;20097;-54
2022/10/09 06:33:39;;;;;;;13.43;7.50;;;;;;;;;;5088775;28;20362;-55
2022/10/09 06:36:05;;;;;;;10.95;7.45;;;;;;;;;;5090698;28;20032;-55
2022/10/09 06:38:30;;;;;;;15.55;8.07;;;;;;;;;;5089904;28;20020;-55
2022/10/09 06:41:00;;;;;;;14.48;8.65;;;;;;;;;;5087996;28;20042;-54
2022/10/09 06:43:25;;;;;;;23.07;8.70;;;;;;;;;;5091447;28;20055;-55
2022/10/09 06:45:50;;;;;;;283.48;12.15;;;;;;;;;;5091608;28;20466;-55
2022/10/09 06:48:15;;;;;;;194.90;10.40;;;;;;;;;;5092340;28;20040;-55
2022/10/09 06:50:41;;;;;;;149.63;10.93;;;;;;;;;;5095729;28;20327;-54
2022/10/09 06:53:06;;;;;;;74.80;9.65;;;;;;;;;;5093148;28;20103;-56
2022/10/09 06:55:31;;;;;;;95.22;9.95;;;;;;;;;;5091384;28;20048;-55
2022/10/09 06:57:56;;;;;;;46.67;7.78;;;;;;;;;;5088744;28;20078;-56
2022/10/09 07:00:22;;;;;;;69.43;8.68;;;;;;;;;;5092608;28;20031;-54
2022/10/09 07:02:48;;;;;;;69.78;9.30;;;;;;;;;;5089687;28;20036;-55
2022/10/09 07:05:13;;;;;;;66.45;10.02;;;;;;;;;;5092323;28;20055;-56
2022/10/09 07:07:39;;;;;;;62.92;9.63;;;;;;;;;;5088518;28;20048;-54
2022/10/09 07:10:04;;;;;;;101.15;11.80;;;;;;;;;;5092347;28;20028;-55
2022/10/09 07:12:30;;;;;;;87.80;12.38;;;;;;;;;;5095176;28;20353;-55
2022/10/09 07:14:55;;;;;;;81.50;14.50;;;;;;;;;;5089217;28;20364;-56
2022/10/09 07:17:20;;;;;;;55.58;14.13;;;;;;;;;;5090818;28;20023;-55
2022/10/09 07:19:47;;;;;;;74.13;13.88;;;;;;;;;;5085439;28;20111;-56
2022/10/09 07:22:12;;;;;;;72.80;14.63;;;;;;;;;;5087782;28;20062;-55
2022/10/09 07:24:37;;;;;;;14.48;9.93;;;;;;;;;;5086928;28;20446;-57
2022/10/09 07:27:03;;;;;;;31.20;8.88;;;;;;;;;;5092261;28;20028;-55
2022/10/09 07:29:28;;;;;;;56.33;9.25;;;;;;;;;;5091998;28;20089;-55
2022/10/09 07:31:53;;;;;;;136.18;10.80;;;;;;;;;;5085439;28;20016;-55
2022/10/09 07:34:18;;;;;;;280.17;13.25;;;;;;;;;;5089274;28;20023;-55
2022/10/09 07:36:44;;;;;;;95.18;9.18;;;;;;;;;;5084964;28;20104;-55
2022/10/09 07:39:09;;;;;;;32.72;9.15;;;;;;;;;;5095433;28;20070;-56
2022/10/09 07:41:34;;;;;;;57.53;9.82;;;;;;;;;;5088052;28;20019;-56
2022/10/09 07:44:00;;;;;;;36.20;9.13;;;;;;;;;;5086251;28;20051;-56
2022/10/09 07:46:25;;;;;;;58.50;8.75;;;;;;;;;;5088047;28;20020;-56
2022/10/09 07:48:51;;;;;;;41.65;9.27;;;;;;;;;;5087713;28;20067;-54
2022/10/09 07:51:23;;;;;;;30.38;9.65;;;;;;;;;;5084931;28;20016;-55
2022/10/09 07:53:49;;;;;;;51.60;10.20;;;;;;;;;;5091435;28;20039;-56
2022/10/09 07:56:14;;;;;;;27.95;9.55;;;;;;;;;;5083793;28;20066;-56
2022/10/09 07:58:40;;;;;;;26.27;8.90;;;;;;;;;;5085535;28;20040;-56
2022/10/09 08:01:06;;;;;;;39.17;7.85;;;;;;;;;;5085133;28;20089;-55
2022/10/09 08:03:31;;;;;;;48.53;8.40;;;;;;;;;;5084750;28;20024;-54
2022/10/09 08:05:56;;;;;;;102.45;10.00;;;;;;;;;;5094723;28;20051;-57
2022/10/09 08:08:21;;;;;;;73.82;9.23;;;;;;;;;;5080516;28;20310;-55
2022/10/09 08:10:46;;;;;;;89.57;10.63;;;;;;;;;;5076256;28;20020;-53
2022/10/09 08:13:12;;;;;;;109.68;10.75;;;;;;;;;;5081418;28;20031;-56
2022/10/09 08:15:41;;;;;;;92.45;11.00;;;;;;;;;;5083531;28;20103;-55
2022/10/09 08:18:07;;;;;;;68.60;12.00;;;;;;;;;;5086015;28;20020;-55
2022/10/09 08:20:32;;;;;;;26.50;11.13;;;;;;;;;;5084410;28;20039;-55
2022/10/09 08:22:57;;;;;;;38.53;11.45;;;;;;;;;;5082391;28;20035;-56
2022/10/09 08:25:22;;;;;;;26.05;13.15;;;;;;;;;;5073378;28;20470;-56
2022/10/09 08:27:50;;;;;;;37.58;14.15;;;;;;;;;;5075839;28;20031;-57
2022/10/09 08:30:16;;;;;;;19.65;11.55;;;;;;;;;;5075121;28;20019;-56
2022/10/09 08:32:41;;;;;;;32.60;12.50;;;;;;;;;;5081917;28;20078;-55
2022/10/09 08:35:06;;;;;;;23.48;13.68;;;;;;;;;;5083897;28;20374;-55
2022/10/09 08:37:31;;;;;;;20.20;12.38;;;;;;;;;;5088811;28;20090;-56
2022/10/09 08:39:57;;;;;;;16.48;11.02;;;;;;;;;;5090157;28;20081;-57
2022/10/09 08:42:28;;;;;;;30.08;10.20;;;;;;;;;;5090278;28;20016;-58
2022/10/09 08:44:53;;;;;;;17.20;10.75;;;;;;;;;;5059945;28;20024;-57
2022/10/09 08:47:23;;;;;;;23.58;10.70;;;;;;;;;;5083305;28;20031;-56
2022/10/09 08:50:07;;;;;;;37.85;11.23;;;;;;;;;;5087034;28;20023;-57
2022/10/09 08:52:45;;;;;;;21.83;9.95;;;;;;;;;;5071279;28;20028;-56
2022/10/09 08:55:16;;;;;;;18.00;11.63;;;;;;;;;;5081648;28;20494;-53
2022/10/09 08:57:41;;;;;;;23.10;11.85;;;;;;;;;;5067163;28;20046;-55
2022/10/09 09:00:14;;;;;;;17.33;11.45;;;;;;;;;;5075332;28;20021;-56
2022/10/09 09:02:52;;;;;;;18.23;11.02;;;;;;;;;;5073258;28;20027;-55
2022/10/09 09:05:36;;;;;;;19.88;11.77;;;;;;;;;;5075308;28;20055;-56
2022/10/09 09:08:04;;;;;;;23.48;12.23;;;;;;;;;;5073340;28;20032;-55
2022/10/09 09:10:30;;;;;;;19.23;12.70;;;;;;;;;;5076483;28;20022;-55
2022/10/09 09:12:58;;;;;;;15.43;10.63;;;;;;;;;;5078403;28;20032;-55
2022/10/09 09:15:39;;;;;;;15.30;10.70;;;;;;;;;;5077174;28;20031;-54
2022/10/09 09:18:20;;;;;;;15.50;10.77;;;;;;;;;;5074522;28;20034;-55
2022/10/09 09:20:55;;;;;;;15.48;10.98;;;;;;;;;;5076023;28;20030;-55
2022/10/09 09:23:27;;;;;;;16.45;10.68;;;;;;;;;;5076454;28;20043;-55
2022/10/09 09:25:52;;;;;;;16.98;10.70;;;;;;;;;;5076992;28;20055;-56
2022/10/09 09:28:19;;;;;;;15.75;10.90;;;;;;;;;;5073932;28;20351;-56
2022/10/09 09:31:03;;;;;;;13.23;9.30;;;;;;;;;;5093976;27;20063;-56
2022/10/09 09:33:46;;;;;;;12.30;9.30;;;;;;;;;;5077715;28;20028;-55
2022/10/09 09:36:22;;;;;;;12.40;8.88;;;;;;;;;;5075498;28;20070;-57
2022/10/09 09:38:48;;;;;;;11.52;9.07;;;;;;;;;;5074019;28;20430;-54
2022/10/09 09:41:13;;;;;;;15.48;9.40;;;;;;;;;;5078010;28;20090;-55
2022/10/09 09:43:38;;;;;;;13.30;9.45;;;;;;;;;;5080424;28;20050;-55
2022/10/09 09:46:09;;;;;;;15.18;10.20;;;;;;;;;;5075505;28;20027;-55
2022/10/09 09:48:34;;;;;;;;;;;;;;;;;;5082896;28;20036;-55
2022/10/09 09:50:59;;;;;;;13.23;8.48;;;;;;;;;;5090688;28;19966;-54
2022/10/09 09:53:29;;;;;;;11.75;8.50;;;;;;;;;;5084085;28;20024;-56
2022/10/09 09:55:54;;;;;;;12.07;7.82;;;;;;;;;;5072861;28;20069;-55
2022/10/09 09:58:19;;;;;;;13.25;8.15;;;;;;;;;;5079480;28;20036;-55
2022/10/09 10:00:54;;;;;;;12.02;8.35;;;;;;;;;;5080084;28;20023;-56
2022/10/09 10:03:20;;;;;;;13.75;8.68;;;;;;;;;;5077229;28;20128;-55
2022/10/09 10:05:45;;;;;;;15.05;8.93;;;;;;;;;;5080052;28;20104;-55
2022/10/09 10:08:28;;;;;;;11.43;7.88;;;;;;;;;;5078746;28;20037;-55
2022/10/09 10:10:55;;;;;;;12.40;8.05;;;;;;;;;;5093844;28;20031;-55
2022/10/09 10:13:21;;;;;;;11.77;8.05;;;;;;;;;;5087795;28;20024;-55
2022/10/09 10:15:47;;;;;;;13.20;8.25;;;;;;;;;;5079414;28;20111;-55
2022/10/09 10:18:13;;;;;;;12.60;8.32;;;;;;;;;;5103429;28;20432;-55
2022/10/09 10:20:42;;;;;;;12.98;8.50;;;;;;;;;;5093131;28;20024;-56
2022/10/09 10:23:20;;;;;;;13.18;8.68;;;;;;;;;;5094938;28;20103;-57
2022/10/09 10:25:46;;;;;;;10.65;7.43;;;;;;;;;;5085644;28;20066;-56
2022/10/09 10:28:14;;;;;;;12.02;8.13;;;;;;;;;;5085714;28;20032;-55
2022/10/09 10:30:39;;;;;;;12.52;8.25;;;;;;;;;;5078940;28;20031;-56
2022/10/09 10:33:06;;;;;;;13.82;8.20;;;;;;;;;;5079795;28;20028;-56
2022/10/09 10:35:35;;;;;;;13.50;8.00;;;;;;;;;;5075930;28;20103;-56
2022/10/09 10:38:05;;;;;;;15.57;8.68;;;;;;;;;;5078411;28;20490;-55
2022/10/09 10:40:37;;;;;;;12.03;8.60;;;;;;;;;;5091789;28;20539;-55
2022/10/09 10:43:05;;;;;;;13.98;8.15;;;;;;;;;;5084455;28;20031;-55
2022/10/09 10:45:53;;;;;;;15.73;8.27;;;;;;;;;;5091975;28;20020;-54
2022/10/09 10:48:23;;;;;;;10.55;7.70;;;;;;;;;;5070174;28;20044;-54
2022/10/09 10:51:11;;;;;;;11.98;8.23;;;;;;;;;;5088568;28;20020;-54
2022/10/09 10:53:40;;;;;;;15.75;7.82;;;;;;;;;;5058859;28;20118;-56
2022/10/09 10:56:06;;;;;;;14.35;8.20;;;;;;;;;;5084309;28;20024;-55
2022/10/09 10:58:39;;;;;;;11.25;8.32;;;;;;;;;;5088612;28;20510;-55
2022/10/09 11:01:05;;;;;;;9.52;7.82;;;;;;;;;;5085252;28;20043;-55
2022/10/09 11:03:33;;;;;;;10.93;8.05;;;;;;;;;;5094403;28;20016;-55
2022/10/09 11:06:04;;;;;;;13.98;8.07;;;;;;;;;;5083826;28;20035;-55
2022/10/09 11:08:30;;;;;;;11.57;8.32;;;;;;;;;;5085378;28;20528;-54
2022/10/09 11:10:55;;;;;;;12.88;8.13;;;;;;;;;;5087961;28;20107;-55
2022/10/09 11:13:33;;;;;;;11.35;7.85;;;;;;;;;;5093448;28;20026;-55
2022/10/09 11:16:01;;;;;;;12.57;8.27;;;;;;;;;;5071850;28;20020;-55
2022/10/09 11:18:35;;;;;;;11.57;7.35;;;;;;;;;;5091635;28;20065;-57
2022/10/09 11:21:09;;;;;;;14.73;8.95;;;;;;;;;;5077700;28;20027;-56
2022/10/09 11:23:41;;;;;;;12.52;8.68;;;;;;;;;;5077134;28;20107;-55
2022/10/09 11:26:15;;;;;;;13.75;7.90;;;;;;;;;;5062397;28;20016;-53
2022/10/09 11:28:42;;;;;;;10.75;6.80;;;;;;;;;;5075496;28;20493;-56
2022/10/09 11:31:10;;;;;;;21.58;7.57;;;;;;;;;;5078626;28;20575;-57
2022/10/09 11:33:44;;;;;;;14.00;6.22;;;;;;;;;;5083849;28;20527;-56
2022/10/09 11:36:12;;;;;;;9.13;5.40;;;;;;;;;;5074970;28;20115;-61
2022/10/09 11:38:38;;;;;;;7.53;3.72;;;;;;;;;;5073648;28;20020;-57
2022/10/09 11:41:04;;;;;;;5.90;3.00;;;;;;;;;;5072771;28;20428;-54
2022/10/09 11:43:35;;;;;;;10.38;2.95;;;;;;;;;;5074663;28;20024;-54
2022/10/09 11:46:03;;;;;;;10.18;3.10;;;;;;;;;;5070680;28;20051;-55
2022/10/09 11:48:31;;;;;;;9.63;2.92;;;;;;;;;;5077463;28;20128;-54
2022/10/09 11:51:04;;;;;;;4.30;2.55;;;;;;;;;;5078571;28;20031;-57
2022/10/09 11:53:30;;;;;;;7.25;2.45;;;;;;;;;;5064455;28;20056;-55
2022/10/09 11:56:17;;;;;;;6.47;2.55;;;;;;;;;;5077487;28;20046;-54
2022/10/09 11:58:43;;;;;;;5.22;2.45;;;;;;;;;;5074489;28;20024;-55
2022/10/09 12:01:20;;;;;;;5.57;2.45;;;;;;;;;;5074974;28;20031;-56
2022/10/09 12:03:45;;;;;;;6.90;3.08;;;;;;;;;;5077488;28;20446;-54
2022/10/09 12:06:14;;;;;;;6.32;2.60;;;;;;;;;;5066888;28;20023;-54
2022/10/09 12:08:42;;;;;;;6.82;2.30;;;;;;;;;;5077758;28;20039;-56
2022/10/09 12:11:14;;;;;;;4.72;2.50;;;;;;;;;;5073423;28;20028;-56
2022/10/09 12:13:41;;;;;;;5.97;2.20;;;;;;;;;;5084360;28;20110;-56
2022/10/09 12:16:07;;;;;;;4.15;1.80;;;;;;;;;;5091477;28;20028;-57
2022/10/09 12:18:39;;;;;;;5.97;2.33;;;;;;;;;;5076549;28;20595;-56
2022/10/09 12:21:05;;;;;;;5.32;1.95;;;;;;;;;;5077138;28;20054;-55
2022/10/09 12:23:31;;;;;;;5.63;2.17;;;;;;;;;;5088106;28;20020;-55
2022/10/09 12:26:00;;;;;;;4.97;1.88;;;;;;;;;;5084169;28;20027;-55
2022/10/09 12:28:35;;;;;;;5.28;2.30;;;;;;;;;;5079708;28;20432;-55
2022/10/09 12:31:01;;;;;;;6.50;2.63;;;;;;;;;;5088041;28;20050;-54
2022/10/09 12:33:32;;;;;;;5.90;2.08;;;;;;;;;;5079038;28;20501;-55
2022/10/09 12:35:59;;;;;;;4.43;2.00;;;;;;;;;;5079770;28;20124;-55
2022/10/09 12:38:28;;;;;;;6.65;1.70;;;;;;;;;;5078884;28;20016;-55
2022/10/09 12:40:53;;;;;;;5.30;2.00;;;;;;;;;;5078546;28;20028;-56
2022/10/09 12:43:19;;;;;;;6.28;2.63;;;;;;;;;;5076697;28;20020;-56
2022/10/09 12:45:45;;;;;;;8.75;2.13;;;;;;;;;;5075296;28;20236;-55
2022/10/09 12:48:11;;;;;;;7.00;2.00;;;;;;;;;;5080099;28;20043;-56
2022/10/09 12:50:36;;;;;;;3.83;2.05;;;;;;;;;;5088343;28;20461;-54
2022/10/09 12:53:03;;;;;;;5.25;2.10;;;;;;;;;;5076179;28;20024;-54
2022/10/09 12:55:29;;;;;;;7.28;2.20;;;;;;;;;;5085207;28;20068;-55
2022/10/09 12:57:59;;;;;;;5.13;2.10;;;;;;;;;;5089950;28;20102;-54
2022/10/09 13:00:25;;;;;;;4.30;1.90;;;;;;;;;;5087494;28;20031;-55
2022/10/09 13:02:50;;;;;;;6.15;1.98;;;;;;;;;;5086214;28;20036;-55
2022/10/09 13:05:15;;;;;;;6.07;1.80;;;;;;;;;;5082965;28;20554;-54
2022/10/09 13:07:41;;;;;;;5.53;2.00;;;;;;;;;;5076343;28;20032;-54
2022/10/09 13:10:07;;;;;;;5.50;2.17;;;;;;;;;;5088318;28;20035;-54
2022/10/09 13:12:38;;;;;;;2.92;1.58;;;;;;;;;;5092830;28;20313;-57
2022/10/09 13:15:22;;;;;;;4.10;2.05;;;;;;;;;;5081102;28;20033;-55
2022/10/09 13:17:47;;;;;;;4.90;2.30;;;;;;;;;;5078225;28;20509;-54
2022/10/09 13:20:18;;;;;;;4.70;2.22;;;;;;;;;;5092308;28;20150;-55
2022/10/09 13:22:56;;;;;;;3.53;1.80;;;;;;;;;;5078194;28;20024;-54
2022/10/09 13:25:22;;;;;;;6.88;2.10;;;;;;;;;;5095443;28;20012;-53
2022/10/09 13:27:47;;;;;;;6.72;2.10;;;;;;;;;;5071188;28;20036;-53
2022/10/09 13:30:12;;;;;;;6.50;2.20;;;;;;;;;;5077825;28;20035;-56
2022/10/09 13:32:38;;;;;;;5.55;2.10;;;;;;;;;;5075882;28;20024;-52
2022/10/09 13:35:03;;;;;;;5.40;2.20;;;;;;;;;;5076108;28;20089;-54
2022/10/09 13:37:28;;;;;;;5.10;1.80;;;;;;;;;;5079938;28;20031;-56
2022/10/09 13:39:54;;;;;;;4.07;2.05;;;;;;;;;;5077115;28;20023;-55
2022/10/09 13:42:20;;;;;;;4.30;2.08;;;;;;;;;;5075960;28;20020;-54
2022/10/09 13:44:45;;;;;;;4.25;2.20;;;;;;;;;;5074826;28;20016;-55
2022/10/09 13:47:10;;;;;;;5.35;2.08;;;;;;;;;;5082249;28;20050;-53
2022/10/09 13:49:35;;;;;;;3.70;1.95;;;;;;;;;;5070420;28;20044;-55
2022/10/09 13:52:01;;;;;;;4.18;1.90;;;;;;;;;;5077668;28;20016;-54
2022/10/09 13:54:26;;;;;;;6.22;2.33;;;;;;;;;;5097319;28;20024;-55
2022/10/09 13:56:51;;;;;;;4.90;2.10;;;;;;;;;;5078076;28;20111;-55
2022/10/09 13:59:17;;;;;;;4.38;1.90;;;;;;;;;;5081709;28;20031;-54
2022/10/09 14:01:42;;;;;;;4.78;2.20;;;;;;;;;;5083411;28;20544;-55
2022/10/09 14:04:07;;;;;;;5.65;2.08;;;;;;;;;;5084361;28;20036;-53
2022/10/09 14:06:34;;;;;;;4.15;2.13;;;;;;;;;;5075465;28;20077;-53
2022/10/09 14:08:59;;;;;;;6.28;2.50;;;;;;;;;;5069250;28;20044;-54
2022/10/09 14:11:24;;;;;;;5.75;2.50;;;;;;;;;;5073117;28;20698;-54
2022/10/09 14:13:49;;;;;;;5.75;2.20;;;;;;;;;;5077697;28;21155;-53
2022/10/09 14:16:15;;;;;;;6.30;2.22;;;;;;;;;;5072725;28;20095;-54
2022/10/09 14:18:40;;;;;;;5.95;2.13;;;;;;;;;;5077683;28;20482;-54
2022/10/09 14:21:11;;;;;;;5.72;2.42;;;;;;;;;;5086650;28;20024;-55
2022/10/09 14:23:36;;;;;;;5.32;2.33;;;;;;;;;;5077339;28;20032;-54
2022/10/09 14:26:03;;;;;;;5.20;2.60;;;;;;;;;;5078993;28;20105;-55
2022/10/09 14:28:28;;;;;;;5.82;2.50;;;;;;;;;;5083144;28;20584;-54
2022/10/09 14:30:53;;;;;;;9.57;2.58;;;;;;;;;;5085553;28;20026;-55